M4105 OEJN-OEMA
Flight info
| Callsign | M4105 |
|---|---|
| Flight time | 0h 40m |
| Altitude | 31000 |
| Route | DATAP A424 RULEB/N0441F300 A424 DEGVU |
| Aircraft | A346/H-SDE2E3FGHIJ3J4J5M1RWXY/LB1D1 |
Departure
| Time | 2026-04-25 10:15 |
|---|---|
| Airport | King Abdulaziz International Airport (OEJN) |
Arrival
| Time | 2026-04-25 10:55 |
|---|---|
| Airport | Prince Mohammad Bin Abdulaziz Airport (OEMA) |
| Time | Latitude | Longitude | Altitude | Speed | Heading |
|---|---|---|---|---|---|
| 2026-04-25 09:51 | 21.66072 | 39.16933 | 65 ft | 0 kts | 128° |
| 2026-04-25 10:05 | 21.66071 | 39.16933 | 65 ft | 0 kts | 128° |
| 2026-04-25 10:06 | 21.66074 | 39.16930 | 65 ft | 2 kts | 128° |
| 2026-04-25 10:06 | 21.66084 | 39.16917 | 65 ft | 2 kts | 136° |
| 2026-04-25 10:06 | 21.66096 | 39.16908 | 65 ft | 2 kts | 154° |
| 2026-04-25 10:07 | 21.66110 | 39.16902 | 65 ft | 2 kts | 167° |
| 2026-04-25 10:07 | 21.66125 | 39.16900 | 65 ft | 2 kts | 180° |
| 2026-04-25 10:07 | 21.66140 | 39.16902 | 65 ft | 2 kts | 195° |
| 2026-04-25 10:07 | 21.66154 | 39.16907 | 65 ft | 2 kts | 208° |
| 2026-04-25 10:08 | 21.66164 | 39.16914 | 65 ft | 0 kts | 219° |
| 2026-04-25 10:08 | 21.66167 | 39.16917 | 65 ft | 0 kts | 220° |
| 2026-04-25 10:09 | 21.66162 | 39.16912 | 65 ft | 4 kts | 222° |
| 2026-04-25 10:10 | 21.66129 | 39.16861 | 65 ft | 10 kts | 246° |
| 2026-04-25 10:10 | 21.66138 | 39.16792 | 65 ft | 10 kts | 317° |
| 2026-04-25 10:10 | 21.66208 | 39.16748 | 65 ft | 10 kts | 320° |
| 2026-04-25 10:10 | 21.66207 | 39.16688 | 65 ft | 9 kts | 239° |
| 2026-04-25 10:11 | 21.66193 | 39.16661 | 65 ft | 0 kts | 243° |
| 2026-04-25 10:12 | 21.66182 | 39.16636 | 65 ft | 7 kts | 246° |
| 2026-04-25 10:13 | 21.66154 | 39.16557 | 65 ft | 13 kts | 253° |
| 2026-04-25 10:13 | 21.66185 | 39.16470 | 65 ft | 14 kts | 327° |
| 2026-04-25 10:13 | 21.66200 | 39.16461 | 65 ft | 0 kts | 333° |
| 2026-04-25 10:13 | 21.66248 | 39.16439 | 65 ft | 31 kts | 338° |
| 2026-04-25 10:14 | 21.66656 | 39.16278 | 65 ft | 91 kts | 340° |
| 2026-04-25 10:14 | 21.67218 | 39.16056 | 65 ft | 130 kts | 339° |
| 2026-04-25 10:14 | 21.68225 | 39.15660 | 72 ft | 178 kts | 339° |
| 2026-04-25 10:14 | 21.69443 | 39.15201 | 467 ft | 192 kts | 340° |
| 2026-04-25 10:15 | 21.70772 | 39.14731 | 918 ft | 207 kts | 342° |
| 2026-04-25 10:15 | 21.72231 | 39.14269 | 1348 ft | 229 kts | 342° |
| 2026-04-25 10:15 | 21.73845 | 39.13645 | 1599 ft | 262 kts | 337° |
| 2026-04-25 10:15 | 21.75635 | 39.12863 | 1869 ft | 286 kts | 336° |
| 2026-04-25 10:16 | 21.77510 | 39.12059 | 2336 ft | 297 kts | 337° |
| 2026-04-25 10:16 | 21.79500 | 39.11235 | 2818 ft | 310 kts | 338° |
| 2026-04-25 10:16 | 21.81553 | 39.10407 | 3290 ft | 323 kts | 338° |
| 2026-04-25 10:16 | 21.83704 | 39.09552 | 3826 ft | 337 kts | 338° |
| 2026-04-25 10:17 | 21.85978 | 39.08651 | 4441 ft | 359 kts | 338° |
| 2026-04-25 10:17 | 21.88377 | 39.07703 | 5057 ft | 379 kts | 338° |
| 2026-04-25 10:17 | 21.90859 | 39.06621 | 5743 ft | 381 kts | 335° |
| 2026-04-25 10:17 | 21.93202 | 39.05513 | 6184 ft | 350 kts | 334° |
| 2026-04-25 10:18 | 21.95419 | 39.04456 | 6118 ft | 361 kts | 334° |
| 2026-04-25 10:18 | 21.97797 | 39.03312 | 6178 ft | 381 kts | 334° |
| 2026-04-25 10:18 | 22.00202 | 39.02161 | 6560 ft | 379 kts | 334° |
| 2026-04-25 10:18 | 22.02538 | 39.01048 | 6910 ft | 352 kts | 334° |
| 2026-04-25 10:19 | 22.04708 | 39.00017 | 7261 ft | 334 kts | 333° |
| 2026-04-25 10:19 | 22.06871 | 38.98979 | 7619 ft | 348 kts | 333° |
| 2026-04-25 10:19 | 22.09145 | 38.97886 | 7963 ft | 361 kts | 333° |
| 2026-04-25 10:19 | 22.11486 | 38.96764 | 8326 ft | 375 kts | 333° |
| 2026-04-25 10:20 | 22.13963 | 38.95790 | 8738 ft | 388 kts | 347° |
| 2026-04-25 10:20 | 22.16694 | 38.95812 | 9200 ft | 401 kts | 11° |
| 2026-04-25 10:20 | 22.19313 | 38.96981 | 9662 ft | 409 kts | 34° |
| 2026-04-25 10:20 | 22.21416 | 38.98926 | 10169 ft | 404 kts | 44° |
| 2026-04-25 10:21 | 22.23499 | 39.01051 | 10637 ft | 413 kts | 44° |
| 2026-04-25 10:21 | 22.25623 | 39.03175 | 11126 ft | 421 kts | 43° |
| 2026-04-25 10:21 | 22.27783 | 39.05293 | 11571 ft | 408 kts | 43° |
| 2026-04-25 10:21 | 22.29809 | 39.07298 | 12070 ft | 388 kts | 44° |
| 2026-04-25 10:22 | 22.31705 | 39.09367 | 12527 ft | 396 kts | 47° |
| 2026-04-25 10:22 | 22.33634 | 39.11569 | 13012 ft | 405 kts | 47° |
| 2026-04-25 10:22 | 22.35561 | 39.13788 | 13506 ft | 413 kts | 47° |
| 2026-04-25 10:22 | 22.37554 | 39.16085 | 13995 ft | 421 kts | 47° |
| 2026-04-25 10:23 | 22.39588 | 39.18429 | 14449 ft | 429 kts | 47° |
| 2026-04-25 10:23 | 22.41640 | 39.20790 | 14965 ft | 437 kts | 47° |
| 2026-04-25 10:23 | 22.43733 | 39.23199 | 15413 ft | 444 kts | 47° |
| 2026-04-25 10:23 | 22.45858 | 39.25643 | 15928 ft | 451 kts | 46° |
| 2026-04-25 10:24 | 22.48022 | 39.28135 | 16557 ft | 453 kts | 46° |
| 2026-04-25 10:24 | 22.50178 | 39.30619 | 17293 ft | 453 kts | 46° |
| 2026-04-25 10:24 | 22.52329 | 39.33099 | 18050 ft | 452 kts | 46° |
| 2026-04-25 10:24 | 22.54452 | 39.35548 | 18772 ft | 451 kts | 46° |
| 2026-04-25 10:25 | 22.56589 | 39.38015 | 19455 ft | 451 kts | 46° |
| 2026-04-25 10:25 | 22.58755 | 39.40516 | 19897 ft | 459 kts | 46° |
| 2026-04-25 10:25 | 22.60958 | 39.43058 | 20068 ft | 474 kts | 46° |
| 2026-04-25 10:25 | 22.63283 | 39.45655 | 20062 ft | 481 kts | 41° |
| 2026-04-25 10:26 | 22.65863 | 39.47892 | 20081 ft | 462 kts | 32° |
| 2026-04-25 10:26 | 22.68551 | 39.49606 | 20114 ft | 443 kts | 23° |
| 2026-04-25 10:26 | 22.71352 | 39.50887 | 20121 ft | 426 kts | 17° |
| 2026-04-25 10:26 | 22.74104 | 39.51945 | 20115 ft | 411 kts | 15° |
| 2026-04-25 10:27 | 22.76777 | 39.52942 | 20113 ft | 396 kts | 15° |
| 2026-04-25 10:27 | 22.79318 | 39.53895 | 20124 ft | 382 kts | 15° |
| 2026-04-25 10:27 | 22.81785 | 39.54834 | 20111 ft | 368 kts | 15° |
| 2026-04-25 10:27 | 22.84158 | 39.55747 | 20125 ft | 354 kts | 15° |
| 2026-04-25 10:28 | 22.86492 | 39.56647 | 20122 ft | 350 kts | 15° |
| 2026-04-25 10:28 | 22.88765 | 39.57525 | 20130 ft | 350 kts | 15° |
| 2026-04-25 10:28 | 22.91079 | 39.58420 | 20157 ft | 350 kts | 15° |
| 2026-04-25 10:28 | 22.93386 | 39.59315 | 20143 ft | 351 kts | 15° |
| 2026-04-25 10:29 | 22.95677 | 39.60203 | 20132 ft | 350 kts | 15° |
| 2026-04-25 10:29 | 22.97978 | 39.61095 | 20155 ft | 350 kts | 15° |
| 2026-04-25 10:29 | 23.00295 | 39.61937 | 20150 ft | 348 kts | 11° |
| 2026-04-25 10:29 | 23.02647 | 39.62495 | 20150 ft | 344 kts | 3° |
| 2026-04-25 10:30 | 23.05014 | 39.62749 | 20144 ft | 341 kts | 357° |
| 2026-04-25 10:30 | 23.07409 | 39.62872 | 20147 ft | 341 kts | 356° |
| 2026-04-25 10:30 | 23.09789 | 39.62976 | 20160 ft | 341 kts | 356° |
| 2026-04-25 10:30 | 23.12159 | 39.63080 | 20164 ft | 342 kts | 356° |
| 2026-04-25 10:31 | 23.14531 | 39.63187 | 20160 ft | 341 kts | 356° |
| 2026-04-25 10:31 | 23.16914 | 39.63302 | 20168 ft | 342 kts | 356° |
| 2026-04-25 10:31 | 23.19309 | 39.63420 | 20182 ft | 342 kts | 356° |
| 2026-04-25 10:31 | 23.21708 | 39.63540 | 20189 ft | 353 kts | 356° |
| 2026-04-25 10:32 | 23.24212 | 39.63660 | 20194 ft | 372 kts | 357° |
| 2026-04-25 10:32 | 23.26907 | 39.63793 | 20193 ft | 392 kts | 357° |
| 2026-04-25 10:32 | 23.29676 | 39.63935 | 20198 ft | 412 kts | 357° |
| 2026-04-25 10:32 | 23.32617 | 39.64087 | 20203 ft | 430 kts | 358° |
| 2026-04-25 10:33 | 23.35677 | 39.64246 | 20215 ft | 449 kts | 358° |
| 2026-04-25 10:33 | 23.38855 | 39.64413 | 20206 ft | 466 kts | 358° |
| 2026-04-25 10:33 | 23.42164 | 39.64588 | 20255 ft | 481 kts | 358° |
| 2026-04-25 10:33 | 23.45537 | 39.64759 | 20853 ft | 481 kts | 358° |
| 2026-04-25 10:34 | 23.48767 | 39.64913 | 21265 ft | 458 kts | 358° |
| 2026-04-25 10:34 | 23.51926 | 39.65100 | 21060 ft | 448 kts | 359° |
| 2026-04-25 10:34 | 23.55029 | 39.65297 | 20804 ft | 439 kts | 358° |
| 2026-04-25 10:34 | 23.58047 | 39.65474 | 20547 ft | 430 kts | 358° |
| 2026-04-25 10:35 | 23.60990 | 39.65633 | 20316 ft | 421 kts | 358° |
| 2026-04-25 10:35 | 23.63926 | 39.65785 | 20061 ft | 413 kts | 358° |
| 2026-04-25 10:35 | 23.66757 | 39.65930 | 19816 ft | 405 kts | 358° |
| 2026-04-25 10:35 | 23.69566 | 39.66182 | 19577 ft | 401 kts | 4° |
| 2026-04-25 10:36 | 23.72332 | 39.66770 | 19341 ft | 422 kts | 10° |
| 2026-04-25 10:36 | 23.75248 | 39.67787 | 19092 ft | 451 kts | 17° |
| 2026-04-25 10:36 | 23.78238 | 39.69043 | 18920 ft | 473 kts | 19° |
| 2026-04-25 10:36 | 23.81339 | 39.70401 | 19442 ft | 477 kts | 19° |
| 2026-04-25 10:37 | 23.84411 | 39.71754 | 20040 ft | 480 kts | 19° |
| 2026-04-25 10:37 | 23.87454 | 39.73087 | 20437 ft | 460 kts | 18° |
| 2026-04-25 10:37 | 23.90385 | 39.74363 | 20205 ft | 451 kts | 18° |
| 2026-04-25 10:37 | 23.93326 | 39.75633 | 19718 ft | 449 kts | 18° |
| 2026-04-25 10:38 | 23.96203 | 39.76869 | 19225 ft | 446 kts | 18° |
| 2026-04-25 10:38 | 23.99086 | 39.78109 | 18737 ft | 444 kts | 18° |
| 2026-04-25 10:38 | 24.01980 | 39.79354 | 18247 ft | 442 kts | 18° |
| 2026-04-25 10:38 | 24.04821 | 39.80576 | 17758 ft | 440 kts | 18° |
| 2026-04-25 10:39 | 24.07677 | 39.81807 | 17250 ft | 438 kts | 19° |
| 2026-04-25 10:39 | 24.10483 | 39.83017 | 16758 ft | 436 kts | 19° |
| 2026-04-25 10:39 | 24.13312 | 39.84232 | 16254 ft | 433 kts | 19° |
| 2026-04-25 10:39 | 24.16116 | 39.85437 | 15759 ft | 431 kts | 19° |
| 2026-04-25 10:40 | 24.18874 | 39.86625 | 15288 ft | 428 kts | 19° |
| 2026-04-25 10:40 | 24.21686 | 39.87677 | 15055 ft | 416 kts | 10° |
| 2026-04-25 10:40 | 24.24476 | 39.88120 | 15042 ft | 396 kts | 359° |
| 2026-04-25 10:40 | 24.27158 | 39.88012 | 15035 ft | 376 kts | 347° |
| 2026-04-25 10:41 | 24.29670 | 39.87540 | 15034 ft | 359 kts | 343° |
| 2026-04-25 10:41 | 24.32099 | 39.87001 | 15026 ft | 345 kts | 343° |
| 2026-04-25 10:41 | 24.34405 | 39.86485 | 15016 ft | 330 kts | 343° |
| 2026-04-25 10:41 | 24.36596 | 39.86003 | 15018 ft | 316 kts | 343° |
| 2026-04-25 10:42 | 24.38740 | 39.85540 | 15026 ft | 311 kts | 343° |
| 2026-04-25 10:42 | 24.40874 | 39.85082 | 15023 ft | 310 kts | 343° |
| 2026-04-25 10:42 | 24.42987 | 39.84634 | 15016 ft | 311 kts | 343° |
| 2026-04-25 10:42 | 24.45137 | 39.84179 | 15023 ft | 311 kts | 343° |
| 2026-04-25 10:43 | 24.47245 | 39.83735 | 15021 ft | 311 kts | 343° |
| 2026-04-25 10:43 | 24.49385 | 39.83275 | 15017 ft | 311 kts | 342° |
| 2026-04-25 10:43 | 24.51512 | 39.82816 | 14950 ft | 312 kts | 343° |
| 2026-04-25 10:43 | 24.53639 | 39.82357 | 14708 ft | 310 kts | 342° |
| 2026-04-25 10:44 | 24.55750 | 39.81902 | 14463 ft | 309 kts | 343° |
| 2026-04-25 10:44 | 24.57850 | 39.81451 | 14223 ft | 308 kts | 343° |
| 2026-04-25 10:44 | 24.59965 | 39.81005 | 13980 ft | 307 kts | 343° |
| 2026-04-25 10:44 | 24.62063 | 39.80561 | 13743 ft | 305 kts | 343° |
| 2026-04-25 10:45 | 24.64152 | 39.80119 | 13509 ft | 305 kts | 343° |
| 2026-04-25 10:45 | 24.66247 | 39.79676 | 13272 ft | 304 kts | 343° |
| 2026-04-25 10:45 | 24.68319 | 39.79234 | 13036 ft | 303 kts | 344° |
| 2026-04-25 10:45 | 24.70379 | 39.78796 | 12702 ft | 305 kts | 344° |
| 2026-04-25 10:46 | 24.72496 | 39.78344 | 12228 ft | 308 kts | 344° |
| 2026-04-25 10:46 | 24.74606 | 39.77893 | 11770 ft | 312 kts | 345° |
| 2026-04-25 10:46 | 24.76744 | 39.77437 | 11307 ft | 315 kts | 345° |
| 2026-04-25 10:46 | 24.78904 | 39.76977 | 10844 ft | 318 kts | 346° |
| 2026-04-25 10:47 | 24.81109 | 39.76508 | 10385 ft | 321 kts | 346° |
| 2026-04-25 10:47 | 24.83296 | 39.76044 | 9925 ft | 324 kts | 346° |
| 2026-04-25 10:47 | 24.85518 | 39.75572 | 9463 ft | 327 kts | 346° |
| 2026-04-25 10:47 | 24.87773 | 39.75085 | 8995 ft | 328 kts | 344° |
| 2026-04-25 10:48 | 24.89859 | 39.74112 | 8513 ft | 324 kts | 319° |
| 2026-04-25 10:48 | 24.91317 | 39.72312 | 8175 ft | 312 kts | 295° |
| 2026-04-25 10:48 | 24.91995 | 39.70140 | 8128 ft | 292 kts | 274° |
| 2026-04-25 10:48 | 24.91931 | 39.67989 | 8119 ft | 272 kts | 254° |
| 2026-04-25 10:49 | 24.91267 | 39.66123 | 8116 ft | 253 kts | 236° |
| 2026-04-25 10:49 | 24.90151 | 39.64731 | 8104 ft | 241 kts | 213° |
| 2026-04-25 10:49 | 24.88593 | 39.64027 | 8111 ft | 241 kts | 187° |
| 2026-04-25 10:49 | 24.86932 | 39.64133 | 8125 ft | 246 kts | 172° |
| 2026-04-25 10:50 | 24.85224 | 39.64477 | 8093 ft | 248 kts | 172° |
| 2026-04-25 10:50 | 24.83524 | 39.64829 | 7697 ft | 253 kts | 171° |
| 2026-04-25 10:50 | 24.81774 | 39.65197 | 7234 ft | 258 kts | 171° |
| 2026-04-25 10:50 | 24.79982 | 39.65575 | 6769 ft | 264 kts | 171° |
| 2026-04-25 10:51 | 24.78165 | 39.65961 | 6337 ft | 267 kts | 171° |
| 2026-04-25 10:51 | 24.76354 | 39.66348 | 6136 ft | 260 kts | 171° |
| 2026-04-25 10:51 | 24.75060 | 39.66625 | 6151 ft | 246 kts | 171° |
| 2026-04-25 10:51 | 24.73435 | 39.66974 | 6116 ft | 228 kts | 171° |
| 2026-04-25 10:52 | 24.71918 | 39.67295 | 5913 ft | 218 kts | 172° |
| 2026-04-25 10:52 | 24.70410 | 39.67616 | 5389 ft | 226 kts | 171° |
| 2026-04-25 10:52 | 24.68891 | 39.67944 | 5240 ft | 210 kts | 170° |
| 2026-04-25 10:52 | 24.67447 | 39.68251 | 4713 ft | 218 kts | 170° |
| 2026-04-25 10:53 | 24.65947 | 39.68576 | 4305 ft | 216 kts | 169° |
| 2026-04-25 10:53 | 24.64489 | 39.68886 | 3837 ft | 220 kts | 171° |
| 2026-04-25 10:53 | 24.63018 | 39.69188 | 3637 ft | 206 kts | 170° |
| 2026-04-25 10:53 | 24.61608 | 39.69521 | 3116 ft | 207 kts | 170° |
| 2026-04-25 10:54 | 24.60234 | 39.69787 | 2745 ft | 197 kts | 170° |
| 2026-04-25 10:54 | 24.59342 | 39.69969 | 2476 ft | 192 kts | 169° |
| 2026-04-25 10:54 | 24.57719 | 39.70317 | 2224 ft | 168 kts | 168° |
| 2026-04-25 10:54 | 24.56594 | 39.70553 | 2147 ft | 158 kts | 169° |
| 2026-04-25 10:55 | 24.55898 | 39.70701 | 2143 ft | 40 kts | 169° |
| 2026-04-25 10:55 | 24.55728 | 39.70738 | 2141 ft | 25 kts | 168° |
| 2026-04-25 10:55 | 24.55544 | 39.70782 | 2134 ft | 28 kts | 169° |
| 2026-04-25 10:55 | 24.55350 | 39.70853 | 2125 ft | 30 kts | 148° |
| 2026-04-25 10:56 | 24.55226 | 39.70966 | 2120 ft | 14 kts | 111° |
| 2026-04-25 10:56 | 24.55224 | 39.70975 | 2120 ft | 0 kts | 101° |
| 2026-04-25 10:58 | 24.55224 | 39.71013 | 2121 ft | 12 kts | 82° |
| 2026-04-25 10:58 | 24.55242 | 39.71151 | 2125 ft | 21 kts | 79° |
| 2026-04-25 10:58 | 24.55279 | 39.71203 | 2130 ft | 5 kts | 19° |
| 2026-04-25 10:58 | 24.55302 | 39.71208 | 2132 ft | 2 kts | 5° |
| 2026-04-25 10:59 | 24.55362 | 39.71202 | 2136 ft | 16 kts | 351° |
| 2026-04-25 10:59 | 24.55430 | 39.71198 | 2141 ft | 5 kts | 25° |
| 2026-04-25 10:59 | 24.55446 | 39.71215 | 2143 ft | 1 kts | 53° |
| 2026-04-25 10:59 | 24.55452 | 39.71225 | 2144 ft | 2 kts | 62° |
| 2026-04-25 11:00 | 24.55465 | 39.71260 | 2145 ft | 1 kts | 75° |
| 2026-04-25 11:00 | 24.55466 | 39.71264 | 2145 ft | 0 kts | 79° |